Погода Кандиевкана неделю

Пензенская область, Россия

22 - 28 мая
  • 22мая
    Сегодня
    +9°
    +24°
    Облачно с прояснениями
    ВремяПогодаТемператураВлажностьДавлениеВетер, м/сВероятность осадков
    00:00Ясно и безоблачно+15°C82 %746 мм0.3 м/с2 %
    03:00Практически безоблачно+13°C85 %746 мм0.4 м/с2 %
    06:00Небольшая облачность+15°C79 %747 мм0.4 м/с2 %
    09:00Практически безоблачно+21°C53 %747 мм1.5 м/с3 %
    12:00Облачно с прояснениями+22°C46 %747 мм2.1 м/с13 %
    15:00Облачно с прояснениями+20°C48 %747 мм2.4 м/с40 %
    18:00Облачно с прояснениями+20°C68 %747 мм2.3 м/с19 %
    21:00Ясно и безоблачно+14°C92 %747 мм1.2 м/с2 %
  • 23мая
    Четверг
    +3°
    +16°
    Ясно и безоблачно
    ВремяПогодаТемператураВлажностьДавлениеВетер, м/сВероятность осадков
    00:00Ясно и безоблачно+13°C94 %747 мм1.9 м/с2 %
    03:00Ясно и безоблачно+10°C75 %748 мм2.0 м/с2 %
    06:00Ясно и безоблачно+10°C68 %750 мм2.8 м/с1 %
    09:00Ясно и безоблачно+14°C50 %751 мм3.9 м/с2 %
    12:00Ясно и безоблачно+15°C39 %752 мм4.0 м/с1 %
    15:00Ясно и безоблачно+15°C32 %752 мм4.3 м/с2 %
    18:00Ясно и безоблачно+14°C33 %752 мм3.5 м/с2 %
    21:00Ясно и безоблачно+9°C42 %754 мм1.5 м/с2 %
  • 24мая
    Пятница
    +6°
    +17°
    Практически безоблачно
    ВремяПогодаТемператураВлажностьДавлениеВетер, м/сВероятность осадков
    00:00Ясно и безоблачно+6°C52 %754 мм1.5 м/с2 %
    03:00Ясно и безоблачно+4°C57 %755 мм1.1 м/с2 %
    06:00Ясно и безоблачно+7°C62 %757 мм0.9 м/с2 %
    09:00Ясно и безоблачно+12°C39 %757 мм2.5 м/с2 %
    12:00Практически безоблачно+14°C36 %757 мм2.5 м/с2 %
    15:00Практически безоблачно+16°C36 %757 мм2.5 м/с2 %
    18:00Ясно и безоблачно+16°C39 %756 мм1.4 м/с2 %
    21:00Облачно с прояснениями+11°C68 %756 мм0.2 м/с2 %
  • 25мая
    Суббота
    +9°
    +21°
    Ясно и безоблачно
    ВремяПогодаТемператураВлажностьДавлениеВетер, м/сВероятность осадков
    00:00Небольшая облачность+9°C77 %756 мм0.3 м/с2 %
    03:00Ясно и безоблачно+7°C82 %757 мм0.5 м/с2 %
    06:00Ясно и безоблачно+11°C71 %757 мм0.5 м/с2 %
    09:00Ясно и безоблачно+16°C44 %757 мм1.6 м/с2 %
    12:00Ясно и безоблачно+19°C42 %756 мм1.6 м/с2 %
    15:00Ясно и безоблачно+21°C39 %755 мм2.4 м/с2 %
    18:00Ясно и безоблачно+20°C41 %753 мм1.8 м/с2 %
    21:00Ясно и безоблачно+13°C60 %752 мм0.7 м/с2 %
  • 26мая
    Воскресенье
    +12°
    +23°
    Ясно и безоблачно
    ВремяПогодаТемператураВлажностьДавлениеВетер, м/сВероятность осадков
    00:00Ясно и безоблачно+11°C68 %752 мм0.9 м/с2 %
    03:00Ясно и безоблачно+10°C69 %751 мм0.8 м/с2 %
    06:00Ясно и безоблачно+13°C65 %751 мм1.2 м/с2 %
    09:00Ясно и безоблачно+19°C42 %751 мм2.6 м/с2 %
    12:00Ясно и безоблачно+22°C38 %750 мм2.9 м/с2 %
    15:00Ясно и безоблачно+23°C36 %749 мм3.2 м/с2 %
    18:00Ясно и безоблачно+22°C40 %748 мм2.1 м/с2 %
    21:00Ясно и безоблачно+16°C62 %748 мм0.7 м/с2 %
Мы используем cookies
Соглашаюсь